Time;durP1;ratioP1;P1;durP2;ratioP2;P2;SDS_P1;SDS_P2;PMS_P1;PMS_P2;Temp;Humidity;BMP_temperature;BMP_pressure;BME280_temperature;BME280_humidity;BME280_pressure;Samples;Min_cycle;Max_cycle;Signal;HPM_P1;HPM_P2
2023/07/11 00:00:14;;;;;;;3.55;0.90;;;19.20;99.90;;;;;;5098421;28;20044;-68
2023/07/11 00:02:42;;;;;;;3.40;1.05;;;19.20;99.90;;;;;;5064687;28;20044;-68
2023/07/11 00:05:08;;;;;;;3.30;1.00;;;19.20;99.90;;;;;;5092757;28;20047;-68
2023/07/11 00:07:34;;;;;;;;;;;19.20;99.90;;;;;;5082956;28;20392;-68
2023/07/11 00:09:59;;;;;;;5.57;1.23;;;19.10;99.90;;;;;;5094960;28;20202;-67
2023/07/11 00:12:28;;;;;;;3.90;1.00;;;19.10;99.90;;;;;;5097875;28;20496;-68
2023/07/11 00:14:56;;;;;;;2.85;0.82;;;19.10;99.90;;;;;;5080237;28;20516;-68
2023/07/11 00:17:22;;;;;;;3.80;0.80;;;19.10;99.90;;;;;;5091400;28;20035;-68
2023/07/11 00:19:54;;;;;;;4.65;1.02;;;19.10;99.90;;;;;;5093106;28;20440;-68
2023/07/11 00:22:21;;;;;;;2.92;1.10;;;19.10;99.90;;;;;;5084151;28;20043;-68
2023/07/11 00:24:48;;;;;;;5.63;1.05;;;19.00;99.90;;;;;;5082417;28;20058;-68
2023/07/11 00:27:16;;;;;;;2.55;1.13;;;19.00;99.90;;;;;;5082582;28;20044;-68
2023/07/11 00:29:41;;;;;;;4.78;1.45;;;19.00;99.90;;;;;;5098807;28;20435;-68
2023/07/11 00:32:08;;;;;;;1.77;0.90;;;19.00;99.90;;;;;;5095720;28;20040;-68
2023/07/11 00:34:33;;;;;;;3.03;1.23;;;19.00;99.90;;;;;;5082725;28;20374;-68
2023/07/11 00:37:00;;;;;;;2.90;1.35;;;18.90;99.90;;;;;;5092403;28;20044;-68
2023/07/11 00:39:29;;;;;;;;;;;19.00;99.90;;;;;;5102979;28;20054;-68
2023/07/11 00:41:55;;;;;;;2.60;1.15;;;18.90;99.90;;;;;;5096820;28;20403;-68
2023/07/11 00:44:21;;;;;;;5.18;1.20;;;19.00;99.90;;;;;;5090689;28;20054;-68
2023/07/11 00:46:47;;;;;;;3.42;1.17;;;18.90;99.90;;;;;;5094674;28;20122;-68
2023/07/11 00:49:16;;;;;;;4.20;1.27;;;19.00;99.90;;;;;;5099131;28;20554;-68
2023/07/11 00:51:48;;;;;;;3.53;1.25;;;19.00;99.90;;;;;;5103379;28;20046;-68
2023/07/11 00:54:16;;;;;;;4.55;1.45;;;19.00;99.90;;;;;;5097143;28;20065;-68
2023/07/11 00:56:45;;;;;;;2.85;1.50;;;19.00;99.90;;;;;;5067085;28;20039;-68
2023/07/11 00:59:14;;;;;;;5.65;1.50;;;19.00;99.90;;;;;;5084451;28;20055;-68
2023/07/11 01:01:41;;;;;;;5.95;1.77;;;19.00;99.90;;;;;;5067333;28;20077;-68
2023/07/11 01:04:07;;;;;;;4.60;1.35;;;19.00;99.90;;;;;;5067297;28;20085;-68
2023/07/11 01:06:33;;;;;;;2.75;1.50;;;19.00;99.90;;;;;;5101498;28;20067;-68
2023/07/11 01:09:04;;;;;;;3.97;1.55;;;19.00;99.90;;;;;;5095049;28;20080;-70
2023/07/11 01:11:31;;;;;;;5.18;1.70;;;19.00;99.90;;;;;;5101837;28;20031;-68
2023/07/11 01:13:57;;;;;;;4.68;1.20;;;19.00;99.90;;;;;;5081149;28;20043;-68
2023/07/11 01:16:23;;;;;;;;;;;19.00;99.90;;;;;;5087350;28;20111;-67
2023/07/11 01:18:48;;;;;;;4.15;1.38;;;19.00;99.90;;;;;;5103422;28;20088;-68
2023/07/11 01:21:21;;;;;;;4.93;1.42;;;19.00;99.90;;;;;;5099830;28;20063;-67
2023/07/11 01:23:47;;;;;;;4.63;1.30;;;19.00;99.90;;;;;;5084555;28;20051;-67
2023/07/11 01:26:13;;;;;;;7.18;1.63;;;19.00;99.90;;;;;;5082687;28;20162;-67
2023/07/11 01:28:39;;;;;;;5.68;1.10;;;19.00;99.90;;;;;;5083828;28;20130;-67
2023/07/11 01:31:06;;;;;;;1.70;0.98;;;19.00;99.90;;;;;;5093032;28;20472;-67
2023/07/11 01:33:33;;;;;;;4.03;1.40;;;19.00;99.90;;;;;;5085067;28;20039;-67
2023/07/11 01:35:58;;;;;;;3.78;1.13;;;19.00;99.90;;;;;;5085379;28;20089;-67
2023/07/11 01:38:25;;;;;;;3.75;1.10;;;19.00;99.90;;;;;;5066090;28;20063;-67
2023/07/11 01:40:51;;;;;;;4.05;1.35;;;18.90;99.90;;;;;;5099321;28;20147;-67
2023/07/11 01:43:17;;;;;;;;;;;18.90;99.90;;;;;;5084878;28;20404;-67
2023/07/11 01:45:44;;;;;;;1.52;0.90;;;18.90;99.90;;;;;;5083910;28;19920;-67
2023/07/11 01:48:10;;;;;;;3.83;1.20;;;18.90;99.90;;;;;;5098437;28;20136;-67
2023/07/11 01:50:36;;;;;;;4.85;1.27;;;18.90;99.90;;;;;;5081288;28;20069;-67
2023/07/11 01:53:02;;;;;;;3.22;1.10;;;18.90;99.90;;;;;;5100175;28;20047;-67
2023/07/11 01:55:28;;;;;;;4.47;1.38;;;18.90;99.90;;;;;;5102451;28;20036;-67
2023/07/11 01:57:53;;;;;;;3.88;1.10;;;18.90;99.90;;;;;;5101615;28;20373;-67
2023/07/11 02:00:20;;;;;;;4.03;1.45;;;18.90;99.90;;;;;;5080407;28;20071;-67
2023/07/11 02:02:46;;;;;;;;;;;18.90;99.90;;;;;;5066950;28;20123;-67
2023/07/11 02:05:13;;;;;;;3.03;1.05;;;18.90;99.90;;;;;;5076006;28;19999;-67
2023/07/11 02:07:39;;;;;;;4.35;1.20;;;18.90;99.90;;;;;;5086064;28;20061;-67
2023/07/11 02:10:06;;;;;;;2.08;1.25;;;18.90;99.90;;;;;;5099343;28;20043;-67
2023/07/11 02:12:31;;;;;;;3.45;1.10;;;18.90;99.90;;;;;;5102513;28;20119;-67
2023/07/11 02:14:57;;;;;;;5.63;1.38;;;18.90;99.90;;;;;;5082760;28;20403;-67
2023/07/11 02:17:23;;;;;;;4.90;1.20;;;18.90;99.90;;;;;;5084849;28;20517;-68
2023/07/11 02:19:49;;;;;;;2.13;0.85;;;18.90;99.90;;;;;;5084502;28;20501;-67
2023/07/11 02:22:14;;;;;;;4.25;1.20;;;18.90;99.90;;;;;;5060749;28;20049;-67
2023/07/11 02:24:40;;;;;;;5.88;1.60;;;18.80;99.90;;;;;;5086336;28;20054;-67
2023/07/11 02:27:07;;;;;;;4.90;0.90;;;18.80;99.90;;;;;;5083609;28;20051;-67
2023/07/11 02:29:33;;;;;;;3.03;0.80;;;18.80;99.90;;;;;;5080570;28;20130;-67
2023/07/11 02:31:59;;;;;;;4.78;1.00;;;18.80;99.90;;;;;;5102297;28;20111;-67
2023/07/11 02:34:25;;;;;;;3.55;1.40;;;18.80;99.90;;;;;;5107341;28;20039;-67
2023/07/11 02:36:51;;;;;;;2.25;0.90;;;18.80;99.90;;;;;;5087891;28;20075;-67
2023/07/11 02:39:17;;;;;;;3.75;0.98;;;18.80;99.90;;;;;;5076240;28;20496;-67
2023/07/11 02:41:43;;;;;;;4.65;1.20;;;18.80;99.90;;;;;;5089887;28;20124;-67
2023/07/11 02:44:09;;;;;;;3.88;1.13;;;18.80;99.90;;;;;;5107220;28;20467;-67
2023/07/11 02:46:35;;;;;;;;;;;18.80;99.90;;;;;;5107730;28;20055;-67
2023/07/11 02:49:01;;;;;;;6.93;1.88;;;18.80;99.90;;;;;;5076078;28;19924;-67
2023/07/11 02:51:27;;;;;;;6.38;3.53;;;18.70;99.90;;;;;;5108529;28;20638;-67
2023/07/11 02:53:53;;;;;;;8.25;4.57;;;18.70;99.90;;;;;;5106451;28;20043;-67
2023/07/11 02:56:19;;;;;;;10.93;6.88;;;18.70;99.90;;;;;;5089512;28;20027;-68
2023/07/11 02:58:50;;;;;;;12.75;8.27;;;18.70;99.90;;;;;;5083332;28;20058;-67
2023/07/11 03:01:16;;;;;;;13.20;8.75;;;18.70;99.90;;;;;;5093403;28;20047;-67
2023/07/11 03:03:41;;;;;;;14.23;8.70;;;18.70;99.90;;;;;;5089329;28;20032;-67
2023/07/11 03:06:07;;;;;;;16.75;9.68;;;18.70;99.90;;;;;;5097952;28;20044;-67
2023/07/11 03:08:33;;;;;;;14.23;8.13;;;18.70;99.90;;;;;;5088261;28;20466;-67
2023/07/11 03:11:00;;;;;;;18.52;8.60;;;18.60;99.90;;;;;;5084424;28;20118;-67
2023/07/11 03:13:26;;;;;;;11.07;6.15;;;18.60;99.90;;;;;;5082136;28;20062;-67
2023/07/11 03:15:52;;;;;;;8.93;5.10;;;18.60;99.90;;;;;;5082204;28;20040;-67
2023/07/11 03:18:18;;;;;;;8.48;4.45;;;18.60;99.90;;;;;;5089680;28;20040;-67
2023/07/11 03:20:44;;;;;;;5.93;3.65;;;18.60;99.90;;;;;;5088091;28;20104;-67
2023/07/11 03:23:11;;;;;;;;;;;18.60;99.90;;;;;;5087856;28;21556;-67
2023/07/11 03:25:38;;;;;;;4.50;2.50;;;18.50;99.90;;;;;;5073264;28;19922;-67
2023/07/11 03:28:04;;;;;;;5.88;1.92;;;18.50;99.90;;;;;;5105839;28;20052;-67
2023/07/11 03:30:34;;;;;;;8.20;2.28;;;18.50;99.90;;;;;;5087272;28;20096;-67
2023/07/11 03:33:00;;;;;;;5.60;2.20;;;18.50;99.90;;;;;;5070778;28;20121;-67
2023/07/11 03:35:26;;;;;;;4.43;1.90;;;18.40;99.90;;;;;;5089717;28;20145;-67
2023/07/11 03:37:52;;;;;;;6.28;1.80;;;18.40;99.90;;;;;;5089219;28;20047;-67
2023/07/11 03:40:18;;;;;;;3.95;1.80;;;18.40;99.90;;;;;;5094942;28;20054;-67
2023/07/11 03:42:44;;;;;;;5.10;2.17;;;18.40;99.90;;;;;;5108800;28;20039;-67
2023/07/11 03:45:10;;;;;;;4.63;1.90;;;18.40;99.90;;;;;;5088984;28;20040;-67
2023/07/11 03:47:35;;;;;;;3.55;2.00;;;18.40;99.90;;;;;;5073272;28;20082;-67
2023/07/11 03:50:01;;;;;;;8.20;2.08;;;18.40;99.90;;;;;;5086503;28;20114;-67
2023/07/11 03:52:27;;;;;;;5.43;2.42;;;18.40;99.90;;;;;;5101620;28;20548;-67
2023/07/11 03:54:53;;;;;;;7.85;2.47;;;18.40;99.90;;;;;;5090263;28;20035;-67
2023/07/11 03:57:19;;;;;;;6.25;2.63;;;18.30;99.90;;;;;;5087357;28;20255;-67
2023/07/11 03:59:44;;;;;;;5.00;2.75;;;18.30;99.90;;;;;;5090011;28;20553;-67
2023/07/11 04:02:10;;;;;;;5.97;2.78;;;18.30;99.90;;;;;;5066350;28;20414;-67
2023/07/11 04:04:36;;;;;;;5.78;2.58;;;18.30;99.90;;;;;;5075704;28;20489;-67
2023/07/11 04:07:03;;;;;;;6.10;2.80;;;18.30;99.90;;;;;;5084731;28;20044;-67
2023/07/11 04:09:29;;;;;;;7.90;3.33;;;18.30;99.90;;;;;;5069902;28;20406;-67
2023/07/11 04:11:55;;;;;;;8.18;2.85;;;18.30;99.90;;;;;;5089752;28;20031;-67
2023/07/11 04:14:20;;;;;;;7.38;2.60;;;18.30;99.90;;;;;;5086223;28;20286;-67
2023/07/11 04:16:46;;;;;;;7.50;2.20;;;18.30;99.90;;;;;;5109230;28;20493;-67
2023/07/11 04:19:12;;;;;;;7.72;2.45;;;18.30;99.90;;;;;;5107571;28;20051;-67
2023/07/11 04:21:38;;;;;;;7.53;2.85;;;18.30;99.90;;;;;;5107962;28;20031;-67
2023/07/11 04:24:04;;;;;;;4.53;2.40;;;18.20;99.90;;;;;;5086089;28;20047;-67
2023/07/11 04:26:30;;;;;;;3.15;1.98;;;18.20;99.90;;;;;;5090814;28;20100;-67
2023/07/11 04:28:55;;;;;;;6.43;2.28;;;18.20;99.90;;;;;;5090104;28;20118;-67
2023/07/11 04:31:21;;;;;;;8.30;2.38;;;18.30;99.90;;;;;;5071355;28;20100;-67
2023/07/11 04:33:47;;;;;;;5.60;2.35;;;18.20;99.90;;;;;;5109035;28;20115;-67
2023/07/11 04:36:15;;;;;;;8.35;2.42;;;18.30;99.90;;;;;;5090593;28;20048;-67
2023/07/11 04:38:42;;;;;;;6.35;2.63;;;18.30;99.90;;;;;;5085207;28;20050;-67
2023/07/11 04:41:08;;;;;;;9.65;2.78;;;18.30;99.90;;;;;;5108111;28;20119;-67
2023/07/11 04:43:33;;;;;;;7.50;2.75;;;18.20;99.90;;;;;;5090165;28;20409;-67
2023/07/11 04:46:04;;;;;;;6.93;3.45;;;18.30;99.90;;;;;;5105826;28;20040;-67
2023/07/11 04:48:31;;;;;;;9.02;2.78;;;18.20;99.90;;;;;;5109201;28;20062;-67
2023/07/11 04:51:06;;;;;;;7.90;2.50;;;18.20;99.90;;;;;;5090204;28;20031;-67
2023/07/11 04:53:33;;;;;;;6.53;2.80;;;18.20;99.90;;;;;;5108255;28;20039;-67
2023/07/11 04:56:00;;;;;;;5.18;2.60;;;18.20;99.90;;;;;;5103684;28;20050;-67
2023/07/11 04:58:30;;;;;;;5.60;2.67;;;18.20;99.90;;;;;;5109085;28;20126;-67
2023/07/11 05:01:07;;;;;;;6.28;2.80;;;18.20;99.90;;;;;;5067239;28;20083;-67
2023/07/11 05:03:33;;;;;;;;;;;18.20;99.90;;;;;;5062811;28;20043;-67
2023/07/11 05:05:59;;;;;;;6.63;3.05;;;18.20;99.90;;;;;;5053688;28;19924;-67
2023/07/11 05:08:25;;;;;;;10.52;3.53;;;18.30;99.90;;;;;;5041714;28;20045;-67
2023/07/11 05:10:52;;;;;;;;;;;18.30;99.90;;;;;;5051194;28;20553;-67
2023/07/11 05:13:18;;;;;;;7.03;3.17;;;18.30;99.90;;;;;;5050684;28;19920;-67
2023/07/11 05:15:44;;;;;;;;;;;18.40;99.90;;;;;;5076347;28;20043;-67
2023/07/11 05:18:10;;;;;;;6.25;3.15;;;18.40;99.90;;;;;;5079070;28;20307;-67
2023/07/11 05:20:36;;;;;;;5.05;2.85;;;18.40;99.90;;;;;;5068866;28;20123;-68
2023/07/11 05:23:01;;;;;;;4.88;2.75;;;18.50;99.90;;;;;;5051319;28;20482;-68
2023/07/11 05:25:27;;;;;;;6.95;3.25;;;18.60;99.90;;;;;;5076210;28;20037;-68
2023/07/11 05:27:53;;;;;;;7.07;3.60;;;18.60;99.90;;;;;;5068966;28;20037;-67
2023/07/11 05:30:18;;;;;;;5.03;2.85;;;18.70;99.90;;;;;;5051167;28;20500;-67
2023/07/11 05:32:44;;;;;;;6.72;2.97;;;18.70;99.90;;;;;;5069512;28;20524;-67
2023/07/11 05:35:10;;;;;;;8.65;3.45;;;18.80;99.90;;;;;;5070764;28;20038;-68
2023/07/11 05:37:36;;;;;;;6.22;2.85;;;18.90;99.90;;;;;;5062562;28;20111;-67
2023/07/11 05:40:02;;;;;;;5.82;3.22;;;18.90;99.90;;;;;;5071544;28;20040;-68
2023/07/11 05:42:27;;;;;;;10.55;3.08;;;19.00;99.90;;;;;;5077194;28;20045;-68
2023/07/11 05:44:54;;;;;;;6.93;2.92;;;19.00;99.90;;;;;;5051192;28;20518;-68
2023/07/11 05:47:20;;;;;;;6.88;3.38;;;19.10;99.90;;;;;;5057992;28;20036;-69
2023/07/11 05:49:46;;;;;;;9.45;3.42;;;19.10;99.90;;;;;;5069160;28;20110;-68
2023/07/11 05:52:12;;;;;;;5.68;3.30;;;19.10;99.90;;;;;;5079802;28;20044;-67
2023/07/11 05:54:37;;;;;;;5.40;3.20;;;19.20;99.90;;;;;;5075006;28;20028;-67
2023/07/11 05:57:04;;;;;;;6.47;2.53;;;19.20;99.90;;;;;;5068228;28;20107;-67
2023/07/11 05:59:30;;;;;;;10.25;3.05;;;19.20;99.90;;;;;;5056386;28;20124;-67
2023/07/11 06:01:55;;;;;;;;;;;19.30;99.90;;;;;;5061595;28;20086;-67
2023/07/11 06:04:21;;;;;;;5.45;3.33;;;19.30;99.90;;;;;;5058887;28;19955;-68
2023/07/11 06:06:49;;;;;;;5.97;3.35;;;19.30;99.90;;;;;;5069696;28;20075;-67
2023/07/11 06:09:17;;;;;;;9.43;3.05;;;19.30;99.90;;;;;;5078317;28;20050;-68
2023/07/11 06:11:44;;;;;;;7.10;3.15;;;19.40;99.90;;;;;;5077387;28;20447;-68
2023/07/11 06:14:10;;;;;;;6.72;3.30;;;19.40;99.90;;;;;;5054341;28;20068;-68
2023/07/11 06:16:36;;;;;;;;;;;19.50;99.90;;;;;;5059652;22;20095;-67
2023/07/11 06:19:04;;;;;;;10.15;3.50;;;19.50;99.90;;;;;;5040480;28;19921;-67
2023/07/11 06:21:30;;;;;;;8.13;3.85;;;19.50;99.90;;;;;;5033118;28;20078;-68
2023/07/11 06:23:56;;;;;;;10.93;3.97;;;19.60;99.90;;;;;;5030783;28;20041;-68
2023/07/11 06:26:22;;;;;;;7.90;3.58;;;19.70;99.90;;;;;;5046574;28;20442;-68
2023/07/11 06:28:48;;;;;;;11.45;4.10;;;19.80;99.90;;;;;;5039304;28;20069;-68
2023/07/11 06:31:15;;;;;;;9.30;3.28;;;19.90;99.90;;;;;;5046603;28;20466;-68
2023/07/11 06:33:41;;;;;;;10.48;3.10;;;20.00;99.90;;;;;;5038341;28;20068;-68
2023/07/11 06:36:08;;;;;;;5.85;3.13;;;20.10;99.90;;;;;;5033190;28;20041;-68
2023/07/11 06:38:34;;;;;;;7.32;3.03;;;20.20;99.90;;;;;;5040894;28;20494;-68
2023/07/11 06:41:01;;;;;;;10.02;4.10;;;20.30;99.90;;;;;;5038295;28;20045;-68
2023/07/11 06:43:28;;;;;;;6.57;3.25;;;20.40;99.90;;;;;;5045522;28;20041;-68
2023/07/11 06:45:56;;;;;;;7.03;3.40;;;20.50;99.90;;;;;;5038294;28;20041;-68
2023/07/11 06:48:25;;;;;;;9.18;3.60;;;20.50;99.90;;;;;;5030618;28;20110;-68
2023/07/11 06:50:57;;;;;;;7.13;3.47;;;20.60;99.90;;;;;;5048048;28;20374;-68
2023/07/11 06:53:25;;;;;;;8.02;3.10;;;20.70;99.90;;;;;;5037286;28;20037;-68
2023/07/11 06:55:52;;;;;;;6.78;3.30;;;20.70;99.90;;;;;;5032521;28;20109;-68
2023/07/11 06:58:19;;;;;;;6.15;3.30;;;20.80;99.90;;;;;;5039667;28;20166;-68
2023/07/11 07:00:55;;;;;;;9.95;3.50;;;20.90;99.90;;;;;;5039820;28;20052;-68
2023/07/11 07:03:21;;;;;;;6.97;3.40;;;20.90;99.90;;;;;;5033980;28;20044;-68
2023/07/11 07:05:56;;;;;;;8.65;3.55;;;21.00;99.90;;;;;;5037385;28;20510;-68
2023/07/11 07:08:23;;;;;;;9.90;2.70;;;21.10;99.90;;;;;;5038846;28;20052;-68
2023/07/11 07:10:50;;;;;;;8.90;3.25;;;21.20;99.90;;;;;;5029388;28;20432;-68
2023/07/11 07:13:17;;;;;;;5.15;2.83;;;21.30;99.90;;;;;;5045453;28;20115;-68
2023/07/11 07:15:49;;;;;;;7.78;3.13;;;21.30;99.90;;;;;;5036986;28;20518;-68
2023/07/11 07:18:16;;;;;;;4.90;2.90;;;21.40;99.90;;;;;;5027821;28;20070;-68
2023/07/11 07:20:46;;;;;;;4.80;3.03;;;21.40;99.90;;;;;;5040840;28;20107;-68
2023/07/11 07:23:13;;;;;;;8.63;3.05;;;21.40;99.90;;;;;;5042440;28;20132;-68
2023/07/11 07:25:39;;;;;;;6.50;3.13;;;21.50;99.90;;;;;;5062185;28;20213;-69
2023/07/11 07:28:05;;;;;;;10.48;2.95;;;21.50;99.90;;;;;;5036442;28;20103;-68
2023/07/11 07:30:31;;;;;;;;;;;21.60;99.90;;;;;;5036628;28;20041;-68
2023/07/11 07:32:57;;;;;;;5.15;2.42;;;21.60;99.90;;;;;;5049476;28;19924;-68
2023/07/11 07:35:23;;;;;;;6.05;2.90;;;21.60;99.90;;;;;;5050938;28;20036;-68
2023/07/11 07:37:49;;;;;;;;;;;21.70;99.90;;;;;;5043518;28;20041;-68
2023/07/11 07:40:16;;;;;;;9.73;2.72;;;21.80;99.90;;;;;;5050209;28;19917;-68
2023/07/11 07:42:42;;;;;;;5.10;2.60;;;21.80;99.90;;;;;;5036900;28;20048;-68
2023/07/11 07:45:08;;;;;;;;;;;21.90;99.90;;;;;;5042681;28;20142;-67
2023/07/11 07:47:35;;;;;;;6.07;3.00;;;21.90;99.90;;;;;;5060192;28;20289;-68
2023/07/11 07:50:02;;;;;;;5.10;2.53;;;22.00;99.90;;;;;;5032001;28;20052;-67
2023/07/11 07:52:28;;;;;;;6.47;3.03;;;22.00;99.90;;;;;;5040660;28;20426;-67
2023/07/11 07:54:53;;;;;;;;;;;22.10;99.90;;;;;;5048876;28;20119;-68
2023/07/11 07:57:19;;;;;;;6.32;2.80;;;22.10;99.90;;;;;;5046170;28;19916;-67
2023/07/11 07:59:45;;;;;;;6.22;2.80;;;22.20;99.90;;;;;;5043094;28;20155;-67
2023/07/11 08:02:11;;;;;;;5.63;2.42;;;22.20;99.90;;;;;;5042461;28;20050;-68
2023/07/11 08:04:36;;;;;;;4.18;2.40;;;22.40;99.90;;;;;;5028825;28;20041;-68
2023/07/11 08:07:03;;;;;;;;;;;22.50;99.90;;;;;;5037112;28;20051;-67
2023/07/11 08:09:29;;;;;;;5.10;2.03;;;22.50;99.90;;;;;;5046145;28;20341;-67
2023/07/11 08:12:03;;;;;;;8.73;2.22;;;22.50;99.90;;;;;;5039494;28;20142;-68
2023/07/11 08:14:29;;;;;;;5.13;2.17;;;22.60;99.90;;;;;;5025406;28;20045;-68
2023/07/11 08:16:54;;;;;;;;;;;22.60;99.90;;;;;;5042258;28;20075;-67
2023/07/11 08:19:20;;;;;;;4.13;2.20;;;22.70;99.90;;;;;;5038697;28;19936;-68
2023/07/11 08:21:45;;;;;;;;;;;22.80;99.90;;;;;;5043864;28;20520;-67
2023/07/11 08:24:12;;;;;;;5.63;2.38;;;22.80;99.90;;;;;;5043169;28;19917;-68
2023/07/11 08:26:38;;;;;;;8.15;2.38;;;22.90;99.90;;;;;;5038717;28;20462;-68
2023/07/11 08:29:04;;;;;;;;;;;22.80;99.90;;;;;;5044046;28;20124;-67
2023/07/11 08:31:29;;;;;;;4.45;2.38;;;22.80;99.90;;;;;;5050038;28;20000;-68
2023/07/11 08:33:55;;;;;;;;;;;22.80;99.90;;;;;;5033939;28;20049;-67
2023/07/11 08:36:21;;;;;;;4.10;1.88;;;22.80;99.90;;;;;;5048627;28;19962;-67
2023/07/11 08:38:47;;;;;;;;;;;22.90;99.90;;;;;;5043003;28;20049;-67
2023/07/11 08:41:45;;;;;;;9.85;2.20;;;23.00;99.90;;;;;;5043298;28;20298;-68
2023/07/11 08:44:26;;;;;;;3.53;2.08;;;23.10;99.90;;;;;;5044706;28;20411;-68
2023/07/11 08:47:02;;;;;;;5.57;2.05;;;23.20;99.90;;;;;;5045656;28;20045;-68
2023/07/11 08:49:48;;;;;;;5.35;1.63;;;23.30;99.90;;;;;;5047768;28;20462;-67
2023/07/11 08:52:15;;;;;;;6.97;2.13;;;23.40;99.90;;;;;;5044545;28;20137;-67
2023/07/11 08:55:08;;;;;;;5.85;1.67;;;23.50;99.90;;;;;;5036009;28;20410;-67
2023/07/11 08:57:40;;;;;;;6.68;2.30;;;23.60;99.90;;;;;;5049815;28;20147;-67
2023/07/11 09:00:18;;;;;;;4.65;1.65;;;23.80;99.90;;;;;;5049845;28;20131;-68
2023/07/11 09:02:59;;;;;;;5.40;1.63;;;23.90;99.90;;;;;;5038792;28;20105;-68
2023/07/11 09:05:25;;;;;;;3.97;1.48;;;24.00;99.90;;;;;;5035481;28;20098;-68
2023/07/11 09:07:52;;;;;;;;;;;24.10;99.90;;;;;;5043155;28;20041;-68
2023/07/11 09:10:24;;;;;;;;;;;24.30;99.90;;;;;;5044739;28;19920;-67
2023/07/11 09:13:23;;;;;;;5.30;1.75;;;24.40;99.90;;;;;;5037686;28;19963;-68
2023/07/11 09:16:06;;;;;;;4.13;1.80;;;24.50;99.90;;;;;;5042494;28;20079;-68
2023/07/11 09:18:50;;;;;;;5.18;2.40;;;24.60;99.90;;;;;;5037777;28;20045;-68
2023/07/11 09:21:32;;;;;;;5.43;1.40;;;24.70;99.90;;;;;;5043803;28;20042;-68
2023/07/11 09:24:19;;;;;;;3.40;1.65;;;24.80;99.90;;;;;;5042523;28;20049;-68
2023/07/11 09:26:48;;;;;;;3.95;1.70;;;24.90;99.90;;;;;;5036136;28;20132;-67
2023/07/11 09:29:16;;;;;;;5.47;1.85;;;25.00;99.90;;;;;;5029877;28;20056;-67
2023/07/11 09:31:55;;;;;;;3.78;1.73;;;25.10;99.90;;;;;;5041076;28;20136;-68
2023/07/11 09:34:32;;;;;;;5.03;1.90;;;25.20;99.90;;;;;;5038687;28;20064;-67
2023/07/11 09:36:59;;;;;;;4.47;1.70;;;25.30;99.90;;;;;;5034402;28;20117;-67
2023/07/11 09:39:39;;;;;;;3.33;1.58;;;25.40;99.90;;;;;;5032298;28;20160;-67
2023/07/11 09:42:22;;;;;;;3.70;1.50;;;25.50;99.90;;;;;;5042505;28;20072;-67
2023/07/11 09:45:08;;;;;;;3.83;2.08;;;25.60;99.90;;;;;;5032012;28;20513;-67
2023/07/11 09:47:34;;;;;;;8.60;1.47;;;25.70;99.90;;;;;;5048441;28;20037;-68
2023/07/11 09:50:11;;;;;;;3.97;1.30;;;25.80;99.20;;;;;;5049340;28;20373;-68
2023/07/11 09:52:39;;;;;;;5.40;1.48;;;25.90;98.60;;;;;;5051122;28;20043;-67
2023/07/11 09:55:22;;;;;;;6.88;1.65;;;25.90;98.20;;;;;;5047661;28;20073;-68
2023/07/11 09:57:50;;;;;;;8.77;1.75;;;26.00;98.20;;;;;;5032814;28;20512;-68
2023/07/11 10:00:17;;;;;;;5.35;1.67;;;26.00;97.30;;;;;;5040856;28;20089;-67
2023/07/11 10:02:47;;;;;;;4.50;2.22;;;26.10;97.40;;;;;;5047131;28;20051;-68
2023/07/11 10:05:17;;;;;;;4.20;1.50;;;26.10;97.50;;;;;;5049474;28;20061;-68
2023/07/11 10:07:44;;;;;;;7.38;1.55;;;25.90;96.70;;;;;;5036595;28;20079;-68
2023/07/11 10:10:16;;;;;;;3.40;1.58;;;25.90;96.40;;;;;;5041325;28;20475;-68
2023/07/11 10:12:43;;;;;;;3.05;1.15;;;25.70;96.10;;;;;;5038680;28;20105;-68
2023/07/11 10:15:18;;;;;;;4.55;1.40;;;25.70;96.20;;;;;;5050407;28;20048;-68
2023/07/11 10:17:45;;;;;;;9.55;1.50;;;25.70;95.70;;;;;;5018868;28;20099;-68
2023/07/11 10:20:21;;;;;;;5.85;1.73;;;25.80;96.40;;;;;;5037099;28;20049;-68
2023/07/11 10:22:48;;;;;;;;;;;25.80;96.30;;;;;;5047595;28;20041;-68
2023/07/11 10:25:21;;;;;;;;;;;25.80;96.70;;;;;;5049749;28;19957;-68
2023/07/11 10:27:59;;;;;;;5.82;1.90;;;25.80;96.40;;;;;;5045062;28;20378;-68
2023/07/11 10:30:29;;;;;;;5.10;1.67;;;25.80;97.00;;;;;;5046095;28;20110;-68
2023/07/11 10:33:07;;;;;;;3.85;1.67;;;25.80;97.20;;;;;;5049935;28;20093;-68
2023/07/11 10:35:35;;;;;;;3.85;1.80;;;25.90;97.10;;;;;;5043436;28;20095;-68
2023/07/11 10:38:06;;;;;;;4.43;1.63;;;25.90;97.20;;;;;;5045292;28;20044;-69
2023/07/11 10:40:42;;;;;;;4.63;1.70;;;26.00;96.90;;;;;;5037678;28;20067;-68
2023/07/11 10:43:26;;;;;;;5.72;1.48;;;25.90;96.10;;;;;;5036801;28;20167;-68
2023/07/11 10:46:00;;;;;;;6.10;1.55;;;25.80;95.80;;;;;;5052383;28;20429;-68
2023/07/11 10:48:34;;;;;;;2.78;1.30;;;25.70;96.10;;;;;;5036367;28;20041;-68
2023/07/11 10:51:31;;;;;;;5.13;1.60;;;25.70;96.70;;;;;;5041287;28;20044;-68
2023/07/11 10:54:12;;;;;;;4.30;1.98;;;25.70;96.80;;;;;;5052075;28;20072;-68
2023/07/11 10:56:45;;;;;;;6.60;2.00;;;25.80;97.20;;;;;;5047765;28;20558;-68
2023/07/11 10:59:16;;;;;;;6.35;1.85;;;25.90;96.80;;;;;;5054095;28;20378;-68
2023/07/11 11:01:53;;;;;;;6.00;1.63;;;26.00;96.90;;;;;;5049293;28;20045;-68
2023/07/11 11:04:28;;;;;;;5.85;2.20;;;26.00;96.90;;;;;;5044152;28;20093;-67
2023/07/11 11:07:12;;;;;;;5.05;1.98;;;26.10;97.10;;;;;;5051568;28;20212;-68
2023/07/11 11:09:49;;;;;;;4.60;1.83;;;26.30;96.70;;;;;;5049693;28;20045;-68
2023/07/11 11:12:28;;;;;;;5.00;1.83;;;26.40;96.50;;;;;;5048632;28;20037;-68
2023/07/11 11:15:12;;;;;;;5.15;2.13;;;26.50;96.30;;;;;;5042054;28;20181;-69
2023/07/11 11:18:00;;;;;;;7.72;2.05;;;26.60;95.60;;;;;;5052490;28;20087;-68
2023/07/11 11:20:37;;;;;;;6.78;2.00;;;26.60;94.50;;;;;;5049199;28;20037;-68
2023/07/11 11:23:18;;;;;;;5.53;2.25;;;26.60;95.10;;;;;;5049944;28;20406;-68
2023/07/11 11:26:29;;;;;;;8.18;2.10;;;26.70;94.90;;;;;;5047211;28;20152;-68
2023/07/11 11:29:19;;;;;;;6.38;2.30;;;26.70;95.80;;;;;;5028802;28;20092;-68
2023/07/11 11:31:57;;;;;;;5.93;2.00;;;26.90;95.60;;;;;;5044941;28;20163;-68
2023/07/11 11:34:48;;;;;;;7.90;2.63;;;26.90;94.80;;;;;;5044701;28;20041;-68
2023/07/11 11:37:24;;;;;;;4.72;1.90;;;27.10;94.40;;;;;;5052822;28;20124;-68
2023/07/11 11:40:11;;;;;;;3.92;1.85;;;27.10;94.20;;;;;;5042958;28;20041;-68
2023/07/11 11:42:41;;;;;;;7.97;1.98;;;27.10;93.10;;;;;;5045981;28;20501;-68
2023/07/11 11:45:21;;;;;;;4.82;2.20;;;27.10;92.30;;;;;;5053521;28;20414;-68
2023/07/11 11:47:50;;;;;;;5.97;1.83;;;27.00;92.10;;;;;;5040992;28;20045;-68
2023/07/11 11:50:19;;;;;;;3.58;1.70;;;27.00;92.70;;;;;;5040601;28;20049;-68
2023/07/11 11:52:44;;;;;;;5.38;2.15;;;27.00;92.70;;;;;;5041673;28;20191;-70
2023/07/11 11:55:32;;;;;;;6.38;2.38;;;26.90;92.70;;;;;;5047507;28;20041;-68
2023/07/11 11:57:58;;;;;;;6.20;2.15;;;26.90;92.80;;;;;;5042662;28;20068;-68
2023/07/11 12:00:36;;;;;;;10.25;2.22;;;26.80;93.10;;;;;;5035928;28;20127;-69
2023/07/11 12:03:03;;;;;;;8.93;2.40;;;26.90;93.70;;;;;;5039974;28;20124;-69
2023/07/11 12:05:29;;;;;;;8.23;2.50;;;27.00;94.10;;;;;;5036379;28;20063;-69
2023/07/11 12:08:23;;;;;;;5.10;2.33;;;27.10;93.70;;;;;;5044275;28;20071;-69
2023/07/11 12:11:15;;;;;;;3.42;1.90;;;27.00;93.00;;;;;;5053957;28;20139;-69
2023/07/11 12:13:44;;;;;;;7.13;2.30;;;26.90;93.50;;;;;;5047620;28;20945;-69
2023/07/11 12:16:21;;;;;;;4.25;1.92;;;26.90;93.40;;;;;;5047739;28;20048;-69
2023/07/11 12:18:58;;;;;;;6.07;1.95;;;27.10;93.20;;;;;;5047848;28;20047;-69
2023/07/11 12:21:42;;;;;;;8.55;2.05;;;27.20;92.60;;;;;;5045955;28;20037;-69
2023/07/11 12:24:34;;;;;;;3.75;1.70;;;27.30;92.10;;;;;;5051906;28;20495;-69
2023/07/11 12:27:33;;;;;;;3.72;1.65;;;27.30;91.20;;;;;;5049342;22;20068;-91
2023/07/11 12:30:01;;;;;;;6.43;1.88;;;27.20;90.60;;;;;;5087402;28;20521;-90
2023/07/11 12:32:40;;;;;;;4.95;1.75;;;27.20;91.20;;;;;;5061794;28;20032;-92
2023/07/11 12:35:11;;;;;;;5.43;1.70;;;27.30;91.80;;;;;;5046558;28;20530;-92
2023/07/11 12:38:19;;;;;;;4.30;1.65;;;27.40;91.10;;;;;;5068240;28;20080;-91
2023/07/11 12:41:13;;;;;;;4.63;1.70;;;27.40;90.50;;;;;;5068410;28;20044;-92
2023/07/11 12:43:42;;;;;;;4.10;1.48;;;27.30;88.90;;;;;;5044063;28;20048;-92
2023/07/11 12:46:34;;;;;;;4.80;1.88;;;27.20;89.90;;;;;;5094886;28;20112;-92
2023/07/11 12:49:12;;;;;;;4.50;1.63;;;27.40;90.00;;;;;;5053027;28;20101;-92
2023/07/11 12:51:41;;;;;;;5.22;2.30;;;27.50;89.20;;;;;;5055540;28;20043;-92
2023/07/11 12:54:09;;;;;;;2.95;1.38;;;27.60;88.50;;;;;;5094991;28;20036;-93
2023/07/11 12:56:35;;;;;;;2.97;1.20;;;27.70;88.60;;;;;;5058347;28;20039;-92
2023/07/11 12:59:01;;;;;;;2.95;1.17;;;27.90;87.50;;;;;;5047486;28;20144;-92
2023/07/11 13:01:31;;;;;;;3.03;1.17;;;27.90;85.70;;;;;;5061772;28;20063;-90
2023/07/11 13:03:57;;;;;;;4.78;1.60;;;27.80;84.70;;;;;;5049420;28;20040;-92
2023/07/11 13:06:32;;;;;;;4.07;1.45;;;27.70;85.70;;;;;;5074753;28;20058;-91